Terminal Aerodrome Forecast
Issued by NWS

Home | Current Version | Previous Version | Text Only | Print | Product List | Glossary On
Versions: 1 2 3 4 5 6 7 8 9 10 11 12 13 14 15 16 17
000
FTUS45 KGJT 252035 AAA
TAFDRO
TAF AMD
KDRO 252035Z 2521/2618 24006KT P6SM SKC
      TEMPO 2521/2524 24008G17KT
     FM260400 34004KT P6SM SKC
     FM260800 04004KT P6SM SKC=

USA.gov is the U.S. government's official web portal to all federal, state and local government web resources and services.